Time;durP1;ratioP1;P1;durP2;ratioP2;P2;SDS_P1;SDS_P2;PMS_P1;PMS_P2;Temp;Humidity;BMP_temperature;BMP_pressure;BME280_temperature;BME280_humidity;BME280_pressure;Samples;Min_cycle;Max_cycle;Signal;HPM_P1;HPM_P2
2022/04/01 00:00:41;;;;;;;11.20;10.20;;;6.50;97.40;;;;;;5082048;28;20460;-64
2022/04/01 00:03:09;;;;;;;11.47;10.47;;;6.50;97.50;;;;;;5081350;28;20449;-64
2022/04/01 00:05:36;;;;;;;12.57;11.57;;;6.60;97.60;;;;;;5080916;28;20444;-65
2022/04/01 00:08:05;;;;;;;11.63;10.63;;;6.60;97.30;;;;;;5081614;28;20448;-64
2022/04/01 00:10:32;;;;;;;11.10;10.10;;;6.60;97.30;;;;;;5081878;28;20520;-64
2022/04/01 00:12:59;;;;;;;11.77;10.77;;;6.60;97.10;;;;;;5082256;28;20481;-64
2022/04/01 00:15:25;;;;;;;10.93;10.03;;;6.50;97.00;;;;;;5081103;28;20523;-64
2022/04/01 00:17:53;;;;;;;10.73;9.83;;;6.50;97.10;;;;;;5079924;28;20516;-64
2022/04/01 00:20:23;;;;;;;10.40;9.50;;;6.40;97.20;;;;;;5080015;28;20456;-64
2022/04/01 00:22:50;;;;;;;10.93;9.83;;;6.40;97.00;;;;;;5080468;28;20451;-64
2022/04/01 00:25:18;;;;;;;11.27;10.37;;;6.30;97.20;;;;;;5080718;28;20788;-65
2022/04/01 00:27:45;;;;;;;10.00;9.20;;;6.40;97.40;;;;;;5080842;28;20444;-65
2022/04/01 00:30:12;;;;;;;11.03;10.10;;;6.40;97.40;;;;;;5080079;28;20448;-64
2022/04/01 00:32:40;;;;;;;10.30;9.50;;;6.40;97.30;;;;;;5080338;28;20460;-64
2022/04/01 00:35:07;;;;;;;10.60;9.60;;;6.50;97.40;;;;;;5080954;28;20472;-64
2022/04/01 00:37:34;;;;;;;10.23;9.43;;;6.50;97.20;;;;;;5080129;28;20458;-64
2022/04/01 00:40:01;;;;;;;10.00;9.20;;;6.50;97.20;;;;;;5079875;28;20822;-65
2022/04/01 00:42:30;;;;;;;10.33;9.33;;;6.50;97.00;;;;;;5079812;28;20523;-64
2022/04/01 00:44:58;;;;;;;10.00;9.17;;;6.40;96.60;;;;;;5084796;28;20517;-65
2022/04/01 00:47:26;;;;;;;9.73;8.93;;;6.50;97.00;;;;;;5083636;28;20448;-65
2022/04/01 00:49:54;;;;;;;9.13;8.40;;;6.40;96.80;;;;;;5083950;28;20456;-65
2022/04/01 00:52:22;;;;;;;9.10;8.20;;;6.40;96.50;;;;;;5084631;28;20533;-66
2022/04/01 00:54:49;;;;;;;9.80;9.00;;;6.40;96.60;;;;;;5084514;28;20510;-65
2022/04/01 00:57:18;;;;;;;9.43;8.63;;;6.40;96.90;;;;;;5083862;28;20448;-65
2022/04/01 00:59:47;;;;;;;10.37;9.47;;;6.50;96.80;;;;;;5084253;28;20440;-65
2022/04/01 01:02:16;;;;;;;9.70;8.93;;;6.40;96.40;;;;;;5084743;28;20477;-65
2022/04/01 01:04:44;;;;;;;10.70;9.70;;;6.40;96.60;;;;;;5084990;28;21010;-65
2022/04/01 01:07:11;;;;;;;11.13;10.17;;;6.40;96.70;;;;;;5085410;28;20444;-65
2022/04/01 01:09:37;;;;;;;11.40;10.40;;;6.40;96.60;;;;;;5085112;28;20523;-66
2022/04/01 01:12:06;;;;;;;11.00;10.10;;;6.50;96.70;;;;;;5084694;28;20479;-65
2022/04/01 01:14:35;;;;;;;10.50;9.70;;;6.40;97.00;;;;;;5083679;28;21062;-65
2022/04/01 01:17:05;;;;;;;10.40;9.47;;;6.40;96.30;;;;;;5084049;28;20437;-65
2022/04/01 01:19:32;;;;;;;10.23;9.23;;;6.30;96.30;;;;;;5083638;28;20467;-64
2022/04/01 01:21:59;;;;;;;9.57;8.77;;;6.40;96.50;;;;;;5083858;28;20491;-65
2022/04/01 01:24:32;;;;;;;8.80;8.10;;;6.40;96.30;;;;;;5083613;28;20466;-65
2022/04/01 01:27:00;;;;;;;9.87;8.97;;;6.30;96.60;;;;;;5084576;28;20433;-65
2022/04/01 01:29:28;;;;;;;9.50;8.60;;;6.30;96.80;;;;;;5084047;28;20444;-64
2022/04/01 01:31:57;;;;;;;10.97;9.87;;;6.30;96.40;;;;;;5083040;28;20994;-65
2022/04/01 01:34:24;;;;;;;10.77;9.87;;;6.20;96.50;;;;;;5083846;28;20472;-65
2022/04/01 01:36:52;;;;;;;11.07;10.07;;;6.20;96.70;;;;;;5083919;28;20448;-65
2022/04/01 01:39:20;;;;;;;11.43;10.43;;;6.20;96.80;;;;;;5084946;28;20447;-65
2022/04/01 01:41:49;;;;;;;10.10;9.00;;;6.20;96.70;;;;;;5083758;28;20847;-65
2022/04/01 01:44:17;;;;;;;9.77;8.87;;;6.20;96.60;;;;;;5084105;28;20441;-65
2022/04/01 01:46:44;;;;;;;10.10;9.20;;;6.20;96.60;;;;;;5083270;28;20463;-65
2022/04/01 01:49:11;;;;;;;9.87;9.07;;;6.20;96.60;;;;;;5082899;28;20440;-65
2022/04/01 01:57:08;;;;;;;10.30;9.30;;;6.20;96.50;;;;;;5082469;28;20770;-65
2022/04/01 01:59:35;;;;;;;10.90;9.90;;;6.20;96.20;;;;;;5081665;28;20449;-65
2022/04/01 02:02:05;;;;;;;10.47;9.40;;;6.20;96.20;;;;;;5082389;28;20469;-65
2022/04/01 02:04:32;;;;;;;10.67;9.67;;;6.10;96.30;;;;;;5083509;28;20432;-65
2022/04/01 02:06:59;;;;;;;9.33;8.53;;;6.00;96.70;;;;;;5083477;28;20551;-65
2022/04/01 02:09:26;;;;;;;10.27;9.27;;;6.10;96.50;;;;;;5082704;28;20444;-64
2022/04/01 02:11:53;;;;;;;11.47;9.40;;;6.10;96.30;;;;;;5083583;28;20469;-64
2022/04/01 02:14:21;;;;;;;10.60;9.60;;;6.10;95.90;;;;;;5083055;28;20512;-64
2022/04/01 02:16:48;;;;;;;10.03;9.13;;;6.10;95.90;;;;;;5083046;28;20445;-64
2022/04/01 02:19:20;;;;;;;10.47;9.57;;;6.10;95.80;;;;;;5083143;28;20467;-65
2022/04/01 02:21:48;;;;;;;9.70;8.80;;;6.10;96.20;;;;;;5082710;28;20876;-63
2022/04/01 02:24:17;;;;;;;10.00;9.00;;;6.00;96.30;;;;;;5083534;28;20448;-64
2022/04/01 02:26:45;;;;;;;9.30;8.50;;;6.00;96.10;;;;;;5083672;28;20492;-64
2022/04/01 02:29:12;;;;;;;9.60;8.70;;;6.10;96.00;;;;;;5083836;28;20448;-65
2022/04/01 02:31:41;;;;;;;8.60;7.83;;;6.00;95.80;;;;;;5082638;28;20815;-63
2022/04/01 02:34:08;;;;;;;8.87;8.17;;;5.90;96.00;;;;;;5082476;28;20481;-63
2022/04/01 02:36:35;;;;;;;9.27;8.53;;;5.90;96.20;;;;;;5082367;28;20463;-64
2022/04/01 02:39:01;;;;;;;10.73;9.63;;;6.00;96.00;;;;;;5081257;28;20460;-64
2022/04/01 02:41:29;;;;;;;8.93;8.07;;;5.90;96.10;;;;;;5081763;28;20464;-64
2022/04/01 02:44:08;;;;;;;9.63;8.50;;;5.80;95.90;;;;;;5082176;28;20448;-64
2022/04/01 02:46:37;;;;;;;8.23;7.43;;;5.90;96.20;;;;;;5084129;28;20528;-64
2022/04/01 02:49:07;;;;;;;8.30;7.50;;;5.80;96.00;;;;;;5081364;28;20448;-64
2022/04/01 02:51:36;;;;;;;9.40;8.60;;;5.90;95.90;;;;;;5081788;28;20486;-64
2022/04/01 02:54:03;;;;;;;9.10;8.30;;;5.90;95.60;;;;;;5081460;28;20507;-64
2022/04/01 02:56:31;;;;;;;10.43;9.50;;;5.90;95.70;;;;;;5081791;28;20536;-65
2022/04/01 02:58:58;;;;;;;9.53;8.63;;;5.80;96.10;;;;;;5081730;28;20859;-65
2022/04/01 03:01:24;;;;;;;9.80;8.90;;;5.90;96.20;;;;;;5081643;28;20465;-64
2022/04/01 03:03:51;;;;;;;9.80;8.90;;;5.90;96.00;;;;;;5082009;28;20448;-64
2022/04/01 03:06:19;;;;;;;12.80;11.03;;;5.90;96.00;;;;;;5081746;28;20460;-64
2022/04/01 03:08:46;;;;;;;11.53;10.53;;;5.90;95.80;;;;;;5092125;28;20449;-64
2022/04/01 03:11:13;;;;;;;10.10;9.10;;;5.90;95.90;;;;;;5095421;28;20908;-64
2022/04/01 03:13:41;;;;;;;10.30;9.40;;;5.90;95.80;;;;;;5088344;28;20444;-64
2022/04/01 03:16:07;;;;;;;10.20;9.30;;;5.80;95.80;;;;;;5085683;28;21012;-64
2022/04/01 03:18:39;;;;;;;9.97;9.17;;;5.80;95.80;;;;;;5084600;28;20456;-65
2022/04/01 03:21:08;;;;;;;10.50;9.50;;;5.80;95.60;;;;;;5083463;28;20476;-65
2022/04/01 03:23:38;;;;;;;11.83;10.30;;;5.80;95.50;;;;;;5083654;28;20453;-65
2022/04/01 03:26:05;;;;;;;11.33;9.40;;;5.80;95.20;;;;;;5083884;28;20817;-65
2022/04/01 03:28:33;;;;;;;18.13;8.90;;;5.80;95.10;;;;;;5083153;28;20541;-64
2022/04/01 03:31:00;;;;;;;11.53;8.53;;;5.80;95.00;;;;;;5087899;28;20468;-64
2022/04/01 03:33:27;;;;;;;10.00;9.00;;;5.70;94.80;;;;;;5087940;28;20444;-65
2022/04/01 03:35:53;;;;;;;9.70;8.80;;;5.70;95.30;;;;;;5084475;28;20484;-65
2022/04/01 03:38:20;;;;;;;10.53;9.63;;;5.70;95.30;;;;;;5083746;28;20446;-66
2022/04/01 03:40:51;;;;;;;10.43;9.50;;;5.60;95.20;;;;;;5083225;28;20481;-64
2022/04/01 03:43:19;;;;;;;10.83;9.90;;;5.60;95.40;;;;;;5083832;28;20441;-65
2022/04/01 03:45:48;;;;;;;11.23;10.13;;;5.60;95.30;;;;;;5083337;28;20445;-65
2022/04/01 03:48:20;;;;;;;11.03;9.93;;;5.60;95.20;;;;;;5083272;28;20472;-64
2022/04/01 03:50:52;;;;;;;10.30;9.27;;;5.60;95.20;;;;;;5083571;28;20469;-65
2022/04/01 03:53:25;;;;;;;11.77;10.53;;;5.50;95.00;;;;;;5083765;28;20433;-64
2022/04/01 03:55:55;;;;;;;10.60;9.60;;;5.50;95.10;;;;;;5084051;28;20465;-65
2022/04/01 03:58:28;;;;;;;11.13;10.07;;;5.50;95.00;;;;;;5084028;28;20510;-65
2022/04/01 04:00:55;;;;;;;10.43;9.43;;;5.50;95.30;;;;;;5084014;28;20475;-65
2022/04/01 04:03:22;;;;;;;10.60;9.60;;;5.50;95.10;;;;;;5084623;28;20441;-65
2022/04/01 04:05:50;;;;;;;9.57;8.57;;;5.40;95.10;;;;;;5083912;28;20482;-65
2022/04/01 04:08:19;;;;;;;9.13;8.33;;;5.40;94.80;;;;;;5083493;28;20452;-66
2022/04/01 04:10:48;;;;;;;13.53;9.77;;;5.40;94.80;;;;;;5083071;28;20518;-66
2022/04/01 04:13:16;;;;;;;11.00;9.87;;;5.30;94.80;;;;;;5083741;28;20491;-66
2022/04/01 04:15:50;;;;;;;9.13;8.33;;;5.30;94.80;;;;;;5083156;28;20491;-65
2022/04/01 04:18:18;;;;;;;11.03;9.60;;;5.30;94.80;;;;;;5081578;28;20437;-65
2022/04/01 04:20:58;;;;;;;9.83;8.93;;;5.30;95.00;;;;;;5081977;28;20846;-65
2022/04/01 04:23:27;;;;;;;8.87;7.97;;;5.30;95.00;;;;;;5083231;28;20436;-65
2022/04/01 04:26:00;;;;;;;9.03;8.23;;;5.30;94.70;;;;;;5083102;28;20964;-65
2022/04/01 04:28:35;;;;;;;8.67;7.87;;;5.20;94.50;;;;;;5082392;28;20437;-65
2022/04/01 04:31:07;;;;;;;11.30;7.43;;;5.20;94.70;;;;;;5081182;28;20478;-65
2022/04/01 04:33:34;;;;;;;8.27;7.47;;;5.20;94.80;;;;;;5079470;28;20436;-65
2022/04/01 04:36:04;;;;;;;8.10;6.90;;;5.20;94.90;;;;;;5077700;28;20507;-64
2022/04/01 04:38:37;;;;;;;9.17;7.43;;;5.20;94.90;;;;;;5077178;28;20519;-64
2022/04/01 04:41:08;;;;;;;9.00;8.17;;;5.20;94.70;;;;;;5076974;28;20480;-64
2022/04/01 04:43:39;;;;;;;8.53;7.73;;;5.20;94.80;;;;;;5076820;28;20452;-64
2022/04/01 04:46:07;;;;;;;7.70;7.00;;;5.20;94.90;;;;;;5076912;28;20847;-64
2022/04/01 04:48:34;;;;;;;7.00;6.40;;;5.30;94.70;;;;;;5077071;28;20448;-63
2022/04/01 04:51:02;;;;;;;7.53;6.83;;;5.20;94.70;;;;;;5076892;28;20464;-64
2022/04/01 04:53:31;;;;;;;7.43;6.83;;;5.30;94.60;;;;;;5077647;28;20453;-64
2022/04/01 04:55:59;;;;;;;8.00;7.23;;;5.30;94.60;;;;;;5078024;28;20480;-63
2022/04/01 04:58:31;;;;;;;7.30;6.60;;;5.30;94.80;;;;;;5079330;28;20447;-64
2022/04/01 05:01:03;;;;;;;6.83;6.20;;;5.30;94.60;;;;;;5078867;28;20461;-64
2022/04/01 05:03:52;;;;;;;6.87;6.27;;;5.30;94.50;;;;;;5078608;28;20439;-64
2022/04/01 05:06:25;;;;;;;6.50;5.90;;;5.30;94.70;;;;;;5078892;28;20440;-64
2022/04/01 05:09:00;;;;;;;8.17;7.47;;;5.30;94.70;;;;;;5078090;28;20432;-64
2022/04/01 05:11:35;;;;;;;6.10;5.60;;;5.30;94.80;;;;;;5078626;28;20471;-64
2022/04/01 05:14:13;;;;;;;9.43;6.33;;;5.30;94.70;;;;;;5077926;28;20439;-64
2022/04/01 05:16:51;;;;;;;6.40;5.83;;;5.20;94.40;;;;;;5078415;28;20436;-64
2022/04/01 05:19:25;;;;;;;6.83;6.17;;;5.20;94.50;;;;;;5077198;28;20463;-64
2022/04/01 05:22:03;;;;;;;8.90;7.37;;;5.10;94.50;;;;;;5078093;28;20502;-64
2022/04/01 05:24:37;;;;;;;7.33;6.73;;;5.20;94.90;;;;;;5085199;28;20431;-63
2022/04/01 05:27:07;;;;;;;7.70;7.00;;;5.10;94.60;;;;;;5078949;28;20842;-63
2022/04/01 05:29:38;;;;;;;7.43;6.80;;;5.20;94.70;;;;;;5079875;28;20448;-63
2022/04/01 05:32:09;;;;;;;9.30;6.07;;;5.20;94.30;;;;;;5085488;28;20538;-64
2022/04/01 05:34:40;;;;;;;7.53;6.20;;;5.20;94.50;;;;;;5081771;28;20471;-64
2022/04/01 05:37:08;;;;;;;6.40;5.80;;;5.20;94.20;;;;;;5081947;28;20444;-63
2022/04/01 05:39:36;;;;;;;7.50;6.70;;;5.20;94.20;;;;;;5082849;28;20445;-63
2022/04/01 05:42:04;;;;;;;7.57;6.90;;;5.20;93.90;;;;;;5082735;28;20979;-63
2022/04/01 05:44:33;;;;;;;7.47;6.87;;;5.10;94.00;;;;;;5083560;28;20797;-63
2022/04/01 05:47:00;;;;;;;5.90;5.40;;;5.10;94.30;;;;;;5082842;28;20441;-63
2022/04/01 05:49:29;;;;;;;5.80;5.30;;;5.20;94.30;;;;;;5083470;28;20437;-64
2022/04/01 05:51:57;;;;;;;6.67;6.07;;;5.20;94.10;;;;;;5082825;28;20468;-64
2022/04/01 05:54:26;;;;;;;6.00;5.50;;;5.20;94.10;;;;;;5082828;28;20820;-64
2022/04/01 05:56:53;;;;;;;6.30;5.70;;;5.20;93.70;;;;;;5081931;28;20452;-64
2022/04/01 05:59:23;;;;;;;5.53;5.03;;;5.20;93.70;;;;;;5082432;28;20506;-64
2022/04/01 06:02:03;;;;;;;6.53;5.87;;;5.10;93.70;;;;;;5081782;28;20460;-64
2022/04/01 06:05:03;;;;;;;6.57;5.90;;;5.10;93.70;;;;;;5082884;28;20436;-64
2022/04/01 06:07:38;;;;;;;6.10;5.60;;;5.10;93.90;;;;;;5081385;28;20435;-64
2022/04/01 06:10:09;;;;;;;8.30;5.43;;;5.10;93.80;;;;;;5081730;28;20803;-64
2022/04/01 06:12:47;;;;;;;5.70;5.20;;;5.10;93.80;;;;;;5082342;28;20498;-64
2022/04/01 06:15:19;;;;;;;6.17;5.67;;;5.10;93.40;;;;;;5081899;28;21058;-64
2022/04/01 06:17:59;;;;;;;6.50;5.90;;;5.10;93.30;;;;;;5082080;28;20429;-64
2022/04/01 06:20:28;;;;;;;5.67;5.17;;;5.10;93.40;;;;;;5081825;28;20459;-64
2022/04/01 06:23:04;;;;;;;6.47;5.97;;;5.10;93.50;;;;;;5081902;28;20496;-64
2022/04/01 06:25:34;;;;;;;6.17;5.67;;;5.00;93.60;;;;;;5081577;28;20436;-64
2022/04/01 06:28:15;;;;;;;6.73;6.13;;;5.10;93.60;;;;;;5080981;28;20448;-64
2022/04/01 06:30:44;;;;;;;5.47;4.97;;;5.10;93.40;;;;;;5080145;28;20507;-63
2022/04/01 06:33:22;;;;;;;6.07;5.50;;;5.10;92.80;;;;;;5080831;28;20539;-63
2022/04/01 06:35:56;;;;;;;5.87;5.10;;;5.10;92.50;;;;;;5080157;28;21048;-63
2022/04/01 06:38:36;;;;;;;6.50;5.50;;;5.00;93.20;;;;;;5081133;28;20427;-63
2022/04/01 06:41:06;;;;;;;6.67;6.00;;;5.00;92.90;;;;;;5080309;28;20464;-63
2022/04/01 06:43:35;;;;;;;6.57;5.90;;;5.00;93.10;;;;;;5081385;28;20450;-64
2022/04/01 06:46:02;;;;;;;7.03;6.37;;;5.10;93.40;;;;;;5080758;28;20459;-64
2022/04/01 06:48:29;;;;;;;7.40;5.97;;;5.10;93.00;;;;;;5080905;28;20464;-64
2022/04/01 06:50:58;;;;;;;6.23;5.63;;;5.10;93.00;;;;;;5080863;28;20471;-63
2022/04/01 06:53:26;;;;;;;6.10;5.60;;;5.20;92.90;;;;;;5080448;28;20425;-63
2022/04/01 06:55:54;;;;;;;7.27;6.67;;;5.20;92.40;;;;;;5080411;28;20998;-64
2022/04/01 06:58:21;;;;;;;6.30;5.70;;;5.20;92.60;;;;;;5080412;28;20444;-64
2022/04/01 07:00:47;;;;;;;6.27;5.77;;;5.20;92.50;;;;;;5080915;28;20468;-63
2022/04/01 07:03:15;;;;;;;7.27;6.20;;;5.10;92.70;;;;;;5080798;28;20781;-64
2022/04/01 07:05:42;;;;;;;6.10;5.50;;;5.20;92.40;;;;;;5079908;28;20456;-64
2022/04/01 07:08:09;;;;;;;5.83;5.40;;;5.10;92.40;;;;;;5079863;28;20804;-64
2022/04/01 07:10:38;;;;;;;5.27;4.80;;;5.10;92.40;;;;;;5080302;28;20436;-64
2022/04/01 07:13:06;;;;;;;5.37;4.87;;;5.20;92.50;;;;;;5080493;28;20445;-63
2022/04/01 07:15:32;;;;;;;5.60;5.07;;;5.20;92.30;;;;;;5084719;28;20480;-63
2022/04/01 07:18:00;;;;;;;5.93;5.33;;;5.20;92.30;;;;;;5084555;28;20547;-64
2022/04/01 07:20:27;;;;;;;7.10;4.93;;;5.30;92.20;;;;;;5081091;28;20460;-64
2022/04/01 07:22:54;;;;;;;5.27;4.77;;;5.30;91.70;;;;;;5080048;28;20479;-64
2022/04/01 07:25:22;;;;;;;6.43;5.67;;;5.20;91.90;;;;;;5079269;28;20421;-64
2022/04/01 07:27:50;;;;;;;7.03;4.97;;;5.20;91.80;;;;;;5080018;28;20527;-64
2022/04/01 07:30:18;;;;;;;5.50;5.00;;;5.30;91.90;;;;;;5079467;28;20484;-63
2022/04/01 07:32:45;;;;;;;5.80;5.27;;;5.30;91.70;;;;;;5079662;28;20831;-64
2022/04/01 07:35:14;;;;;;;7.17;5.77;;;5.30;91.90;;;;;;5078787;28;20507;-63
2022/04/01 07:37:42;;;;;;;5.67;5.10;;;5.30;92.10;;;;;;5079665;28;20428;-63
2022/04/01 07:40:12;;;;;;;5.77;5.27;;;5.30;91.80;;;;;;5080082;28;20449;-63
2022/04/01 07:42:39;;;;;;;6.67;5.47;;;5.30;91.70;;;;;;5079387;28;20503;-63
2022/04/01 07:45:09;;;;;;;6.10;5.60;;;5.30;91.50;;;;;;5079607;28;20449;-64
2022/04/01 07:47:36;;;;;;;6.20;5.70;;;5.30;91.10;;;;;;5079165;28;20452;-63
2022/04/01 07:50:05;;;;;;;6.03;5.53;;;5.30;91.10;;;;;;5079275;28;20523;-64
2022/04/01 07:52:33;;;;;;;5.87;5.37;;;5.30;91.50;;;;;;5079304;28;20476;-64
2022/04/01 07:55:00;;;;;;;5.90;5.40;;;5.30;91.70;;;;;;5080029;28;20448;-64
2022/04/01 07:57:27;;;;;;;5.90;5.13;;;5.40;91.40;;;;;;5079459;28;20433;-64
2022/04/01 07:59:53;;;;;;;7.10;5.30;;;5.40;91.00;;;;;;5079917;28;20444;-64
2022/04/01 08:02:21;;;;;;;5.70;5.17;;;5.50;90.90;;;;;;5079593;28;21024;-64
2022/04/01 08:04:48;;;;;;;7.07;6.37;;;5.40;90.90;;;;;;5080102;28;20456;-64
2022/04/01 08:07:16;;;;;;;6.60;5.90;;;5.40;90.70;;;;;;5079833;28;20812;-64
2022/04/01 08:09:43;;;;;;;6.13;5.63;;;5.50;91.00;;;;;;5078904;28;20445;-64
2022/04/01 08:12:09;;;;;;;6.40;5.90;;;5.50;90.60;;;;;;5079528;28;20472;-64
2022/04/01 08:14:37;;;;;;;6.10;5.50;;;5.50;90.50;;;;;;5079619;28;20456;-65
2022/04/01 08:17:06;;;;;;;8.90;5.70;;;5.40;90.60;;;;;;5079165;28;20553;-63
2022/04/01 08:19:34;;;;;;;6.93;6.23;;;5.50;90.90;;;;;;5078156;28;20464;-63
2022/04/01 08:22:01;;;;;;;6.93;6.23;;;5.50;90.60;;;;;;5078437;28;20563;-63
2022/04/01 08:24:28;;;;;;;7.27;6.60;;;5.50;90.20;;;;;;5079670;28;20452;-63
2022/04/01 08:26:56;;;;;;;7.10;6.40;;;5.50;90.20;;;;;;5079181;28;20443;-64
2022/04/01 08:29:23;;;;;;;6.80;6.17;;;5.50;90.20;;;;;;5079253;28;20432;-64
2022/04/01 08:31:50;;;;;;;7.00;6.30;;;5.50;90.10;;;;;;5079085;28;20530;-64
2022/04/01 08:34:16;;;;;;;6.90;6.30;;;5.50;89.60;;;;;;5078887;28;20451;-64
2022/04/01 08:36:44;;;;;;;6.67;6.13;;;5.50;90.00;;;;;;5078343;28;20480;-64
2022/04/01 08:39:11;;;;;;;6.27;5.67;;;5.50;90.10;;;;;;5079350;28;20429;-64
2022/04/01 08:41:38;;;;;;;6.10;5.60;;;5.50;90.00;;;;;;5079081;28;20479;-64
2022/04/01 08:44:06;;;;;;;7.37;5.97;;;5.50;90.10;;;;;;5079351;28;20451;-64
2022/04/01 08:46:33;;;;;;;6.23;5.73;;;5.50;90.40;;;;;;5079927;28;20428;-64
2022/04/01 08:49:01;;;;;;;6.13;5.63;;;5.50;89.60;;;;;;5079951;28;20457;-64
2022/04/01 08:51:28;;;;;;;6.10;5.60;;;5.30;88.90;;;;;;5079261;28;20460;-64
2022/04/01 08:53:56;;;;;;;6.07;5.47;;;5.30;88.90;;;;;;5079791;28;20446;-64
2022/04/01 08:56:23;;;;;;;6.60;6.10;;;5.20;89.00;;;;;;5081955;28;20476;-64
2022/04/01 08:58:50;;;;;;;5.80;5.30;;;5.20;90.10;;;;;;5081532;28;20444;-65
2022/04/01 09:01:17;;;;;;;7.47;5.50;;;5.20;90.20;;;;;;5083461;28;20468;-64
2022/04/01 09:03:45;;;;;;;5.37;4.87;;;5.20;90.00;;;;;;5083285;28;20530;-65
2022/04/01 09:06:12;;;;;;;5.80;5.23;;;5.20;90.10;;;;;;5082974;28;20441;-64
2022/04/01 09:08:40;;;;;;;5.60;5.10;;;5.20;89.60;;;;;;5083250;28;21011;-64
2022/04/01 09:11:09;;;;;;;5.97;5.37;;;5.10;89.30;;;;;;5082286;28;20494;-64
2022/04/01 09:13:48;;;;;;;6.40;5.90;;;5.10;90.10;;;;;;5083102;28;20459;-64
2022/04/01 09:16:24;;;;;;;4.77;4.37;;;5.10;90.10;;;;;;5082704;28;20472;-64
2022/04/01 09:18:54;;;;;;;6.47;5.87;;;5.10;90.30;;;;;;5082088;28;20479;-64
2022/04/01 09:21:26;;;;;;;5.80;5.20;;;5.20;90.20;;;;;;5082375;28;20507;-64
2022/04/01 09:23:53;;;;;;;5.50;5.00;;;5.20;89.00;;;;;;5082436;28;20437;-64
2022/04/01 09:26:23;;;;;;;6.53;5.93;;;5.20;88.80;;;;;;5087518;28;20452;-64
2022/04/01 09:28:53;;;;;;;5.30;4.80;;;5.20;89.50;;;;;;5085799;28;20439;-64
2022/04/01 09:31:24;;;;;;;5.90;5.27;;;5.20;89.30;;;;;;5083934;28;21016;-64
2022/04/01 09:33:52;;;;;;;6.40;5.27;;;5.30;87.80;;;;;;5083647;28;20467;-64
2022/04/01 09:36:22;;;;;;;5.60;5.10;;;5.30;88.60;;;;;;5082552;28;20490;-64
2022/04/01 09:38:57;;;;;;;5.60;5.10;;;5.30;89.30;;;;;;5082388;28;20441;-64
2022/04/01 09:41:34;;;;;;;5.87;5.37;;;5.30;89.10;;;;;;5082112;28;20524;-65
2022/04/01 09:44:12;;;;;;;6.90;5.73;;;5.40;88.60;;;;;;5082340;28;20523;-64
2022/04/01 09:46:44;;;;;;;6.07;5.47;;;5.30;87.70;;;;;;5083632;28;20471;-64
2022/04/01 09:49:12;;;;;;;5.93;5.33;;;5.30;87.60;;;;;;5082866;28;20456;-64
2022/04/01 09:51:43;;;;;;;6.50;5.33;;;5.20;87.60;;;;;;5082616;28;20460;-64
2022/04/01 09:54:11;;;;;;;5.70;5.20;;;5.30;89.00;;;;;;5082208;28;20429;-64
2022/04/01 09:56:44;;;;;;;5.10;4.70;;;5.30;88.10;;;;;;5081912;28;20490;-64
2022/04/01 09:59:12;;;;;;;4.70;4.30;;;5.30;87.40;;;;;;5082064;28;20425;-64
2022/04/01 10:01:40;;;;;;;5.13;4.50;;;5.30;86.10;;;;;;5082068;28;20475;-64
2022/04/01 10:04:07;;;;;;;5.00;4.53;;;5.40;86.50;;;;;;5081237;28;20448;-64
2022/04/01 10:06:35;;;;;;;6.03;5.53;;;5.50;86.90;;;;;;5081825;28;20467;-64
2022/04/01 10:09:05;;;;;;;5.37;4.97;;;5.50;86.20;;;;;;5081224;28;20437;-63
2022/04/01 10:11:33;;;;;;;5.67;5.17;;;5.50;85.60;;;;;;5080672;28;20464;-64
2022/04/01 10:14:07;;;;;;;4.73;4.33;;;5.50;85.50;;;;;;5080338;28;20813;-64
2022/04/01 10:16:35;;;;;;;5.28;4.78;;;5.60;85.60;;;;;;5080045;28;20495;-64
2022/04/01 10:19:07;;;;;;;4.63;4.23;;;5.90;85.80;;;;;;5080610;28;20218;-64
2022/04/01 10:21:34;;;;;;;4.90;4.30;;;5.90;84.20;;;;;;5075531;28;20572;-63
2022/04/01 10:24:09;;;;;;;6.47;5.17;;;5.80;83.10;;;;;;5075138;28;20476;-63
2022/04/01 10:26:42;;;;;;;5.60;5.00;;;5.70;83.60;;;;;;5075455;28;20447;-63
2022/04/01 10:29:10;;;;;;;5.37;4.87;;;5.70;83.40;;;;;;5074949;28;20448;-64
2022/04/01 10:31:39;;;;;;;4.90;4.50;;;5.70;83.10;;;;;;5074800;28;20480;-64
2022/04/01 10:34:24;;;;;;;6.57;4.90;;;5.70;83.60;;;;;;5075226;28;20459;-63
2022/04/01 10:36:55;;;;;;;5.73;5.23;;;5.80;84.40;;;;;;5074961;28;20512;-64
2022/04/01 10:39:22;;;;;;;5.27;4.87;;;5.90;83.80;;;;;;5074914;28;20985;-64
2022/04/01 10:42:08;;;;;;;5.57;5.00;;;5.80;84.20;;;;;;5074910;28;20480;-63
2022/04/01 10:44:53;;;;;;;5.43;4.90;;;5.80;84.10;;;;;;5074903;28;20440;-64
2022/04/01 10:47:23;;;;;;;4.40;4.00;;;5.90;84.00;;;;;;5075018;28;20428;-64
2022/04/01 10:52:34;;;;;;;5.50;4.87;;;6.00;82.00;;;;;;5074407;28;20482;-63
2022/04/01 10:55:11;;;;;;;5.10;4.60;;;6.00;82.00;;;;;;5074378;28;20432;-64
2022/04/01 10:57:43;;;;;;;4.80;4.40;;;6.00;81.20;;;;;;5074364;28;20983;-63
2022/04/01 11:00:15;;;;;;;5.70;5.10;;;6.10;81.60;;;;;;5074491;28;20459;-64
2022/04/01 11:02:43;;;;;;;4.87;3.97;;;6.10;81.50;;;;;;5074166;28;20874;-64
2022/04/01 11:05:24;;;;;;;5.63;5.10;;;6.10;81.40;;;;;;5074335;28;20456;-64
2022/04/01 11:08:14;;;;;;;6.43;5.57;;;6.20;81.00;;;;;;5074417;28;20451;-64
2022/04/01 11:10:41;;;;;;;5.77;5.00;;;6.20;80.10;;;;;;5074060;28;20547;-64
2022/04/01 11:13:28;;;;;;;4.73;4.23;;;6.20;81.00;;;;;;5074181;28;20444;-64
2022/04/01 11:16:15;;;;;;;4.80;4.50;;;6.20;80.30;;;;;;5074202;28;20428;-64
2022/04/01 11:19:11;;;;;;;6.40;4.80;;;6.20;79.30;;;;;;5074005;28;20460;-63
2022/04/01 11:21:38;;;;;;;4.73;4.33;;;6.20;79.00;;;;;;5074323;28;20534;-63
2022/04/01 11:24:21;;;;;;;5.70;4.90;;;6.20;80.00;;;;;;5074374;28;20452;-63
2022/04/01 11:26:47;;;;;;;5.67;4.83;;;6.10;79.80;;;;;;5073729;28;20425;-63
2022/04/01 11:29:23;;;;;;;5.70;5.20;;;6.00;78.70;;;;;;5073605;28;20952;-64
2022/04/01 11:32:01;;;;;;;5.90;5.30;;;5.90;79.80;;;;;;5073917;28;20482;-64
2022/04/01 11:34:28;;;;;;;6.30;4.87;;;5.90;80.00;;;;;;5073978;28;20433;-63
2022/04/01 11:37:00;;;;;;;4.70;4.30;;;5.90;80.70;;;;;;5077459;28;20488;-63
2022/04/01 11:39:27;;;;;;;5.30;4.90;;;5.90;80.30;;;;;;5078506;28;20417;-64
2022/04/01 11:41:54;;;;;;;4.70;4.30;;;5.90;80.20;;;;;;5078750;28;20535;-64
2022/04/01 11:44:22;;;;;;;5.63;4.20;;;5.90;81.50;;;;;;5078940;28;20543;-64
2022/04/01 11:46:55;;;;;;;5.37;4.87;;;5.90;81.30;;;;;;5078473;28;20873;-64
2022/04/01 11:49:26;;;;;;;4.43;4.03;;;5.90;81.60;;;;;;5079664;28;20437;-64
2022/04/01 11:51:53;;;;;;;4.83;4.33;;;5.80;82.00;;;;;;5078870;28;20796;-64
2022/04/01 11:54:22;;;;;;;9.17;4.50;;;6.00;82.10;;;;;;5078695;28;20448;-64
2022/04/01 11:56:52;;;;;;;4.77;4.27;;;6.00;81.20;;;;;;5079131;28;20507;-64
2022/04/01 11:59:19;;;;;;;4.93;4.53;;;6.00;80.10;;;;;;5078810;28;20436;-63
2022/04/01 12:01:58;;;;;;;4.87;4.47;;;6.00;80.40;;;;;;5077935;28;20464;-63
2022/04/01 12:04:35;;;;;;;4.67;4.27;;;6.00;80.70;;;;;;5078476;28;20432;-64
2022/04/01 12:09:56;;;;;;;3.90;3.60;;;6.20;79.70;;;;;;5079379;28;20489;-65
2022/04/01 12:12:24;;;;;;;4.47;4.13;;;6.10;80.20;;;;;;5079040;28;20476;-64
2022/04/01 12:14:51;;;;;;;4.20;3.80;;;6.10;79.40;;;;;;5078874;28;20440;-64
2022/04/01 12:17:19;;;;;;;4.13;3.83;;;6.00;78.40;;;;;;5079567;28;20461;-64
2022/04/01 12:19:48;;;;;;;4.67;4.37;;;6.00;79.20;;;;;;5080631;28;20970;-64
2022/04/01 12:22:15;;;;;;;4.50;4.10;;;5.90;79.50;;;;;;5079203;28;20521;-63
2022/04/01 12:24:42;;;;;;;4.80;4.30;;;5.90;80.60;;;;;;5081151;28;20490;-64
2022/04/01 12:27:09;;;;;;;4.73;4.33;;;5.80;80.00;;;;;;5082268;28;20445;-64
2022/04/01 12:29:36;;;;;;;5.50;4.60;;;5.80;80.30;;;;;;5080260;28;21023;-64
2022/04/01 12:32:07;;;;;;;5.40;4.90;;;5.70;80.40;;;;;;5084558;28;20467;-64
2022/04/01 12:34:34;;;;;;;5.17;4.67;;;5.70;81.50;;;;;;5079999;28;20472;-64
2022/04/01 12:37:06;;;;;;;8.93;5.57;;;5.70;81.90;;;;;;5078432;28;20464;-65
2022/04/01 12:39:35;;;;;;;4.70;4.30;;;5.70;81.90;;;;;;5081216;28;20552;-64
2022/04/01 12:42:07;;;;;;;5.10;4.70;;;5.70;82.20;;;;;;5082646;28;20465;-64
2022/04/01 12:44:35;;;;;;;8.00;5.13;;;5.80;82.00;;;;;;5082810;28;20912;-65
2022/04/01 12:47:04;;;;;;;4.70;4.30;;;5.80;81.40;;;;;;5083692;28;20451;-64
2022/04/01 12:49:33;;;;;;;5.00;4.17;;;5.90;81.60;;;;;;5082722;28;20452;-64
2022/04/01 12:52:04;;;;;;;4.73;4.33;;;5.90;82.10;;;;;;5082377;28;20824;-64
2022/04/01 12:54:33;;;;;;;5.00;4.60;;;5.90;81.60;;;;;;5083929;28;20436;-64
2022/04/01 12:57:04;;;;;;;5.00;4.40;;;5.90;81.60;;;;;;5082584;28;20476;-65
2022/04/01 12:59:35;;;;;;;4.90;4.50;;;6.00;82.00;;;;;;5081744;28;20440;-65
2022/04/01 13:02:04;;;;;;;5.50;5.00;;;6.00;80.80;;;;;;5082432;28;20465;-65
2022/04/01 13:04:39;;;;;;;5.70;5.20;;;5.90;81.00;;;;;;5082343;28;20452;-65
2022/04/01 13:07:09;;;;;;;4.63;4.23;;;5.90;81.80;;;;;;5081957;28;20820;-65
2022/04/01 13:10:01;;;;;;;4.87;4.47;;;5.90;82.10;;;;;;5081538;28;20440;-65
2022/04/01 13:12:38;;;;;;;4.53;3.90;;;5.90;81.30;;;;;;5067647;28;20469;-64
2022/04/01 13:15:06;;;;;;;6.10;5.27;;;5.90;81.10;;;;;;5081910;28;20440;-65
2022/04/01 13:17:41;;;;;;;5.50;5.00;;;5.80;82.40;;;;;;5083226;28;20835;-65